createdAt,value
2023-04-27T00:01:44.064Z,100143.40
2023-04-27T00:04:11.594Z,100141.84
2023-04-27T00:06:38.866Z,100143.10
2023-04-27T00:09:06.025Z,100143.85
2023-04-27T00:11:33.100Z,100145.11
2023-04-27T00:14:00.184Z,100143.48
2023-04-27T00:16:27.254Z,100144.27
2023-04-27T00:18:54.337Z,100142.63
2023-04-27T00:21:21.569Z,100149.08
2023-04-27T00:23:48.606Z,100147.11
2023-04-27T00:26:16.331Z,100146.05
2023-04-27T00:28:44.299Z,100150.42
2023-04-27T00:31:11.360Z,100148.89
2023-04-27T00:33:38.483Z,100154.52
2023-04-27T00:36:06.125Z,100152.42
2023-04-27T00:38:33.231Z,100157.44
2023-04-27T00:41:08.010Z,100155.55
2023-04-27T00:43:45.836Z,100156.40
2023-04-27T00:46:17.013Z,100160.50
2023-04-27T00:48:44.833Z,100163.54
2023-04-27T00:51:12.052Z,100160.86
2023-04-27T00:53:39.500Z,100159.68
2023-04-27T00:56:07.753Z,100162.33
2023-04-27T00:58:35.059Z,100160.77
2023-04-27T01:01:02.369Z,100164.92
2023-04-27T01:03:31.036Z,100158.65
2023-04-27T01:06:01.674Z,100162.73
2023-04-27T01:08:29.496Z,100160.03
2023-04-27T01:10:56.730Z,100157.64
2023-04-27T01:13:23.799Z,100163.50
2023-04-27T01:15:50.880Z,100164.96
2023-04-27T01:18:18.032Z,100166.94
2023-04-27T01:20:45.136Z,100169.02
2023-04-27T01:23:17.250Z,100170.13
2023-04-27T01:25:45.038Z,100172.12
2023-04-27T01:28:12.752Z,100169.81
2023-04-27T01:30:39.953Z,100178.46
2023-04-27T01:33:07.164Z,100175.94
2023-04-27T01:35:34.417Z,100176.63
2023-04-27T01:38:01.736Z,100173.33
2023-04-27T01:40:29.398Z,100174.30
2023-04-27T01:42:56.606Z,100173.98
2023-04-27T01:45:23.804Z,100174.08
2023-04-27T01:47:52.487Z,100179.12
2023-04-27T01:50:20.704Z,100178.63
2023-04-27T01:52:47.974Z,100178.61
2023-04-27T01:55:15.140Z,100180.23
2023-04-27T01:57:42.513Z,100177.98
2023-04-27T02:00:10.219Z,100183.09
2023-04-27T02:02:51.308Z,100181.72
2023-04-27T02:05:18.643Z,100180.88
2023-04-27T02:07:46.049Z,100179.83
2023-04-27T02:10:13.318Z,100181.07
2023-04-27T02:12:40.694Z,100181.45
2023-04-27T02:15:09.041Z,100182.14
2023-04-27T02:17:36.263Z,100180.35
2023-04-27T02:20:03.413Z,100180.43
2023-04-27T02:22:30.505Z,100181.62
2023-04-27T02:24:57.563Z,100184.07
2023-04-27T02:27:24.737Z,100182.70
2023-04-27T02:29:52.284Z,100180.96
2023-04-27T02:32:19.792Z,100176.29
2023-04-27T02:34:46.862Z,100177.29
2023-04-27T02:37:13.825Z,100174.96
2023-04-27T02:39:41.914Z,100179.39
2023-04-27T02:42:09.033Z,100172.96
2023-04-27T02:44:36.309Z,100177.20
2023-04-27T02:47:03.551Z,100174.48
2023-04-27T02:49:30.777Z,100173.73
2023-04-27T02:51:57.850Z,100176.20
2023-04-27T02:54:25.605Z,100178.71
2023-04-27T02:56:52.689Z,100178.71
2023-04-27T02:59:19.903Z,100180.70
2023-04-27T03:01:47.105Z,100181.80
2023-04-27T03:04:15.368Z,100183.27
2023-04-27T03:06:42.703Z,100188.30
2023-04-27T03:09:13.226Z,100190.21
2023-04-27T03:11:40.590Z,100190.02
2023-04-27T03:14:07.725Z,100193.54
2023-04-27T03:16:35.271Z,100194.91
2023-04-27T03:19:02.375Z,100195.89
2023-04-27T03:21:31.917Z,100199.64
2023-04-27T03:23:59.029Z,100199.80
2023-04-27T03:26:26.503Z,100204.45
2023-04-27T03:28:53.686Z,100205.39
2023-04-27T03:31:20.721Z,100205.65
2023-04-27T03:33:47.750Z,100207.49
2023-04-27T03:36:15.611Z,100210.23
2023-04-27T03:38:42.801Z,100210.81
2023-04-27T03:41:10.071Z,100214.61
2023-04-27T03:43:37.208Z,100221.25
2023-04-27T03:46:04.443Z,100219.16
2023-04-27T03:48:32.033Z,100221.45
2023-04-27T03:51:00.664Z,100226.63
2023-04-27T03:53:27.815Z,100228.67
2023-04-27T03:55:55.002Z,100227.55
2023-04-27T03:58:22.088Z,100228.23
2023-04-27T04:01:06.785Z,100230.52
2023-04-27T04:03:34.040Z,100231.64
2023-04-27T04:06:03.665Z,100232.73
2023-04-27T04:08:30.879Z,100232.48
2023-04-27T04:10:57.940Z,100234.73
2023-04-27T04:13:25.050Z,100237.48
2023-04-27T04:16:01.772Z,100238.49
2023-04-27T04:18:28.921Z,100239.54
2023-04-27T04:20:56.334Z,100239.92
2023-04-27T04:23:23.740Z,100242.56
2023-04-27T04:25:51.408Z,100243.93
2023-04-27T04:28:20.301Z,100244.49
2023-04-27T04:30:47.600Z,100245.39
2023-04-27T04:33:14.952Z,100247.11
2023-04-27T04:35:42.334Z,100246.85
2023-04-27T04:38:10.775Z,100247.66
2023-04-27T04:40:43.839Z,100247.88
2023-04-27T04:43:13.481Z,100252.50
2023-04-27T04:45:42.797Z,100257.20
2023-04-27T04:48:10.427Z,100256.02
2023-04-27T04:50:39.469Z,100254.86
2023-04-27T04:53:06.654Z,100256.52
2023-04-27T04:55:33.932Z,100256.02
2023-04-27T04:58:01.521Z,100254.33
2023-04-27T05:00:28.857Z,100257.90
2023-04-27T05:02:56.072Z,100261.63
2023-04-27T05:05:23.310Z,100261.95
2023-04-27T05:07:50.474Z,100262.61
2023-04-27T05:10:17.751Z,100266.14
2023-04-27T05:12:44.784Z,100267.23
2023-04-27T05:15:12.158Z,100267.67
2023-04-27T05:17:39.331Z,100272.64
2023-04-27T05:20:07.965Z,100276.98
2023-04-27T05:22:35.033Z,100277.15
2023-04-27T05:25:02.221Z,100279.33
2023-04-27T05:27:29.561Z,100279.03
2023-04-27T05:29:56.899Z,100277.52
2023-04-27T05:32:23.997Z,100282.14
2023-04-27T05:34:51.350Z,100285.20
2023-04-27T05:37:18.501Z,100283.56
2023-04-27T05:39:45.613Z,100284.98
2023-04-27T05:42:12.838Z,100292.25
2023-04-27T05:44:39.979Z,100294.98
2023-04-27T05:47:07.099Z,100290.70
2023-04-27T05:49:34.129Z,100292.23
2023-04-27T05:52:02.050Z,100290.14
2023-04-27T05:54:29.151Z,100293.35
2023-04-27T05:56:56.260Z,100292.23
2023-04-27T05:59:23.394Z,100296.52
2023-04-27T06:01:51.037Z,100298.23
2023-04-27T06:04:18.296Z,100294.14
2023-04-27T06:06:45.704Z,100299.69
2023-04-27T06:09:12.962Z,100299.23
2023-04-27T06:11:40.198Z,100301.33
2023-04-27T06:14:07.311Z,100304.30
2023-04-27T06:16:34.477Z,100307.82
2023-04-27T06:19:01.732Z,100308.84
2023-04-27T06:21:28.786Z,100307.34
2023-04-27T06:23:55.851Z,100303.92
2023-04-27T06:26:22.875Z,100307.85
2023-04-27T06:28:49.981Z,100305.81
2023-04-27T06:31:17.701Z,100301.84
2023-04-27T06:33:44.831Z,100300.50
2023-04-27T06:36:11.956Z,100302.40
2023-04-27T06:38:39.118Z,100302.86
2023-04-27T06:41:06.791Z,100302.90
2023-04-27T06:43:33.942Z,100305.60
2023-04-27T06:46:01.561Z,100301.96
2023-04-27T06:48:28.691Z,100301.28
2023-04-27T06:50:55.945Z,100303.19
2023-04-27T06:53:23.060Z,100307.58
2023-04-27T06:55:51.131Z,100301.20
2023-04-27T06:58:18.271Z,100302.30
2023-04-27T07:00:45.404Z,100298.80
2023-04-27T07:03:12.660Z,100304.73
2023-04-27T07:05:39.945Z,100304.33
2023-04-27T07:08:08.742Z,100302.79
2023-04-27T07:10:36.567Z,100304.42
2023-04-27T07:13:03.623Z,100303.04
2023-04-27T07:18:46.189Z,100309.30
2023-04-27T07:21:13.206Z,100306.91
2023-04-27T07:23:43.343Z,100302.81
2023-04-27T07:26:10.580Z,100303.27
2023-04-27T07:28:38.418Z,100303.09
2023-04-27T07:31:06.299Z,100304.41
2023-04-27T07:33:34.221Z,100303.98
2023-04-27T07:36:02.809Z,100306.58
2023-04-27T07:38:31.367Z,100307.82
2023-04-27T07:41:01.828Z,100312.59
2023-04-27T07:43:29.008Z,100313.48
2023-04-27T07:45:58.557Z,100313.52
2023-04-27T07:48:25.929Z,100316.73
2023-04-27T07:50:53.885Z,100317.17
2023-04-27T07:53:21.290Z,100317.05
2023-04-27T07:55:48.374Z,100316.55
2023-04-27T07:58:16.240Z,100317.16
2023-04-27T08:00:43.411Z,100316.20
2023-04-27T08:03:10.979Z,100316.05
2023-04-27T08:05:38.516Z,100314.36
2023-04-27T08:08:06.154Z,100310.23
2023-04-27T08:10:33.444Z,100311.58
2023-04-27T08:13:00.544Z,100319.32
2023-04-27T08:15:27.889Z,100324.37
2023-04-27T08:17:54.999Z,100326.23
2023-04-27T08:20:22.154Z,100324.56
2023-04-27T08:22:51.153Z,100320.77
2023-04-27T08:25:18.273Z,100321.92
2023-04-27T08:27:45.634Z,100323.94
2023-04-27T08:30:13.284Z,100324.34
2023-04-27T08:32:40.516Z,100321.69
2023-04-27T08:35:07.938Z,100322.72
2023-04-27T08:37:35.062Z,100319.71
2023-04-27T08:40:05.907Z,100320.83
2023-04-27T08:42:33.070Z,100317.23
2023-04-27T08:45:00.358Z,100319.41
2023-04-27T08:47:39.160Z,100320.54
2023-04-27T08:50:10.029Z,100323.95
2023-04-27T08:52:37.663Z,100318.98
2023-04-27T08:55:05.296Z,100320.48
2023-04-27T08:57:32.351Z,100324.95
2023-04-27T09:00:01.094Z,100326.64
2023-04-27T09:02:29.926Z,100330.48
2023-04-27T09:04:57.437Z,100329.68
2023-04-27T09:07:26.232Z,100335.00
2023-04-27T09:10:03.729Z,100332.69
2023-04-27T09:12:30.970Z,100333.88
2023-04-27T09:15:04.118Z,100329.31
2023-04-27T09:17:31.529Z,100331.42
2023-04-27T09:20:09.247Z,100322.41
2023-04-27T09:22:47.429Z,100317.47
2023-04-27T09:25:32.063Z,100315.86
2023-04-27T09:28:00.664Z,100309.84
2023-04-27T09:30:29.446Z,100306.76
2023-04-27T09:32:59.426Z,100308.59
2023-04-27T09:35:32.757Z,100311.50
2023-04-27T09:38:01.110Z,100309.58
2023-04-27T09:40:31.289Z,100316.83
2023-04-27T09:43:01.934Z,100316.81
2023-04-27T09:45:29.731Z,100317.32
2023-04-27T09:47:58.581Z,100314.79
2023-04-27T09:50:26.127Z,100310.91
2023-04-27T09:52:53.374Z,100308.90
2023-04-27T09:55:27.442Z,100310.19
2023-04-27T09:58:16.068Z,100309.88
2023-04-27T10:00:53.430Z,100309.35
2023-04-27T10:03:39.127Z,100313.08
2023-04-27T10:06:24.979Z,100308.85
2023-04-27T10:08:52.209Z,100313.34
2023-04-27T10:11:19.564Z,100312.19
2023-04-27T10:13:56.015Z,100316.70
2023-04-27T10:16:23.182Z,100323.29
2023-04-27T10:18:56.567Z,100319.55
2023-04-27T10:21:27.212Z,100317.52
2023-04-27T10:23:54.680Z,100315.67
2023-04-27T10:26:25.770Z,100318.20
2023-04-27T10:29:09.256Z,100313.19
2023-04-27T10:31:44.119Z,100317.56
2023-04-27T10:34:15.838Z,100314.16
2023-04-27T10:36:43.119Z,100315.98
2023-04-27T10:39:29.921Z,100313.16
2023-04-27T10:42:03.482Z,100313.34
2023-04-27T10:44:32.280Z,100311.38
2023-04-27T10:47:13.346Z,100305.58
2023-04-27T10:49:40.860Z,100307.27
2023-04-27T10:52:08.502Z,100301.20
2023-04-27T10:54:37.564Z,100298.47
2023-04-27T10:57:08.896Z,100297.00
2023-04-27T10:59:48.507Z,100300.94
2023-04-27T11:02:16.152Z,100302.13
2023-04-27T11:04:43.458Z,100303.27
2023-04-27T11:07:11.080Z,100308.91
2023-04-27T11:09:40.735Z,100309.47
2023-04-27T11:12:09.473Z,100317.14
2023-04-27T11:14:37.116Z,100316.55
2023-04-27T11:17:05.206Z,100317.97
2023-04-27T11:19:32.817Z,100313.49
2023-04-27T11:22:07.148Z,100314.35
2023-04-27T11:24:34.401Z,100315.35
2023-04-27T11:27:01.599Z,100315.80
2023-04-27T11:29:38.047Z,100320.02
2023-04-27T11:32:06.091Z,100321.25
2023-04-27T11:34:39.059Z,100324.61
2023-04-27T11:37:17.984Z,100329.95
2023-04-27T11:39:46.072Z,100329.95
2023-04-27T11:42:20.746Z,100332.88
2023-04-27T11:45:01.425Z,100333.91
2023-04-27T11:47:30.350Z,100333.12
2023-04-27T11:49:59.966Z,100333.16
2023-04-27T11:52:31.916Z,100332.58
2023-04-27T11:55:00.605Z,100338.10
2023-04-27T11:57:29.612Z,100338.52
2023-04-27T12:00:00.567Z,100343.25
2023-04-27T12:02:29.365Z,100343.21
2023-04-27T12:04:58.864Z,100343.20
2023-04-27T12:07:26.535Z,100343.70
2023-04-27T12:09:53.650Z,100344.98
2023-04-27T12:12:22.798Z,100342.09
2023-04-27T12:14:51.110Z,100340.31
2023-04-27T12:17:18.448Z,100345.21
2023-04-27T12:19:45.690Z,100342.86
2023-04-27T12:22:13.022Z,100343.07
2023-04-27T12:24:40.176Z,100342.00
2023-04-27T12:27:07.789Z,100350.48
2023-04-27T12:29:34.984Z,100356.25
2023-04-27T12:32:02.225Z,100352.70
2023-04-27T12:34:29.516Z,100353.58
2023-04-27T12:36:56.691Z,100356.55
2023-04-27T12:39:25.606Z,100358.14
2023-04-27T12:41:53.636Z,100360.23
2023-04-27T12:44:21.703Z,100362.58
2023-04-27T12:46:49.212Z,100362.05
2023-04-27T12:49:17.686Z,100364.27
2023-04-27T12:51:46.858Z,100365.09
2023-04-27T12:54:14.306Z,100363.31
2023-04-27T12:56:42.140Z,100361.91
2023-04-27T12:59:09.484Z,100361.98
2023-04-27T13:01:36.858Z,100360.70
2023-04-27T13:04:06.166Z,100360.19
2023-04-27T13:06:33.457Z,100359.61
2023-04-27T13:09:00.761Z,100362.55
2023-04-27T13:11:27.957Z,100359.10
2023-04-27T13:13:55.308Z,100360.02
2023-04-27T13:16:25.499Z,100361.94
2023-04-27T13:18:53.560Z,100361.23
2023-04-27T13:21:21.397Z,100362.84
2023-04-27T13:23:49.411Z,100364.55
2023-04-27T13:26:17.159Z,100364.38
2023-04-27T13:28:44.307Z,100361.44
2023-04-27T13:31:12.047Z,100359.94
2023-04-27T13:33:42.271Z,100362.85
2023-04-27T13:36:10.966Z,100361.21
2023-04-27T13:38:38.418Z,100361.34
2023-04-27T13:41:06.817Z,100365.52
2023-04-27T13:43:34.283Z,100368.20
2023-04-27T13:46:02.605Z,100368.09
2023-04-27T13:48:31.073Z,100370.47
2023-04-27T13:50:58.363Z,100377.17
2023-04-27T13:53:26.120Z,100377.86
2023-04-27T13:55:56.765Z,100378.61
2023-04-27T13:58:26.035Z,100380.15
2023-04-27T14:00:54.078Z,100377.14
2023-04-27T14:03:21.887Z,100377.05
2023-04-27T14:05:51.113Z,100373.85
2023-04-27T14:08:18.651Z,100376.33
2023-04-27T14:10:46.536Z,100377.73
2023-04-27T14:13:14.064Z,100371.81
2023-04-27T14:15:41.959Z,100374.11
2023-04-27T14:18:09.488Z,100378.63
2023-04-27T14:20:38.065Z,100378.95
2023-04-27T14:23:06.364Z,100378.52
2023-04-27T14:25:34.871Z,100383.08
2023-04-27T14:28:06.426Z,100377.94
2023-04-27T14:30:34.842Z,100377.78
2023-04-27T14:33:02.707Z,100375.77
2023-04-27T14:35:30.236Z,100377.66
2023-04-27T14:38:02.346Z,100380.56
2023-04-27T14:40:30.746Z,100384.58
2023-04-27T14:42:58.705Z,100385.45
2023-04-27T14:45:33.515Z,100393.06
2023-04-27T14:48:04.342Z,100394.73
2023-04-27T14:50:31.899Z,100400.55
2023-04-27T14:52:58.968Z,100398.73
2023-04-27T14:55:26.072Z,100394.29
2023-04-27T14:57:53.250Z,100397.39
2023-04-27T15:00:20.579Z,100398.60
2023-04-27T15:02:47.845Z,100399.36
2023-04-27T15:05:15.026Z,100399.04
2023-04-27T15:07:42.154Z,100399.48
2023-04-27T15:10:09.765Z,100401.54
2023-04-27T15:12:36.842Z,100400.58
2023-04-27T15:15:05.037Z,100398.79
2023-04-27T15:17:32.179Z,100399.42
2023-04-27T15:19:59.394Z,100404.20
2023-04-27T15:22:28.008Z,100403.63
2023-04-27T15:24:55.067Z,100408.77
2023-04-27T15:27:22.315Z,100414.05
2023-04-27T15:29:49.424Z,100414.61
2023-04-27T15:32:16.659Z,100413.39
2023-04-27T15:34:44.813Z,100409.45
2023-04-27T15:37:12.255Z,100412.89
2023-04-27T15:39:39.363Z,100416.20
2023-04-27T15:42:06.582Z,100421.84
2023-04-27T15:44:33.711Z,100427.23
2023-04-27T15:47:00.946Z,100428.02
2023-04-27T15:49:28.735Z,100430.83
2023-04-27T15:51:55.884Z,100427.73
2023-04-27T15:54:23.264Z,100430.06
2023-04-27T15:56:50.486Z,100430.90
2023-04-27T15:59:18.456Z,100432.64
2023-04-27T16:01:45.567Z,100433.74
2023-04-27T16:04:12.785Z,100435.73
2023-04-27T16:06:39.984Z,100437.32
2023-04-27T16:09:10.431Z,100440.14
2023-04-27T16:11:37.989Z,100437.23
2023-04-27T16:14:05.248Z,100437.34
2023-04-27T16:16:32.425Z,100437.38
2023-04-27T16:18:59.599Z,100441.61
2023-04-27T16:21:28.120Z,100443.23
2023-04-27T16:23:55.426Z,100443.79
2023-04-27T16:26:22.600Z,100445.55
2023-04-27T16:28:50.612Z,100446.91
2023-04-27T16:31:17.683Z,100456.93
2023-04-27T16:33:47.124Z,100453.73
2023-04-27T16:36:14.345Z,100446.39
2023-04-27T16:38:41.699Z,100447.92
2023-04-27T16:41:08.848Z,100455.37
2023-04-27T16:43:35.998Z,100451.26
2023-04-27T16:46:03.140Z,100450.04
2023-04-27T16:48:30.610Z,100454.14
2023-04-27T16:50:57.812Z,100451.66
2023-04-27T16:53:25.595Z,100452.25
2023-04-27T16:55:52.950Z,100459.83
2023-04-27T16:58:20.064Z,100461.62
2023-04-27T17:00:47.101Z,100461.91
2023-04-27T17:03:14.731Z,100460.20
2023-04-27T17:05:42.039Z,100460.27
2023-04-27T17:08:09.142Z,100468.13
2023-04-27T17:10:36.970Z,100470.27
2023-04-27T17:13:05.125Z,100466.45
2023-04-27T17:15:32.450Z,100464.76
2023-04-27T17:18:02.478Z,100470.27
2023-04-27T17:20:29.617Z,100470.35
2023-04-27T17:22:56.782Z,100469.48
2023-04-27T17:25:24.092Z,100470.48
2023-04-27T17:27:51.466Z,100467.05
2023-04-27T17:30:18.682Z,100469.70
2023-04-27T17:32:46.128Z,100471.05
2023-04-27T17:35:13.367Z,100467.18
2023-04-27T17:37:40.924Z,100466.50
2023-04-27T17:40:09.260Z,100469.09
2023-04-27T17:42:36.632Z,100467.88
2023-04-27T17:45:04.047Z,100473.25
2023-04-27T17:47:32.284Z,100466.66
2023-04-27T17:49:59.440Z,100468.16
2023-04-27T17:52:26.508Z,100469.24
2023-04-27T17:54:53.610Z,100467.47
2023-04-27T17:57:20.679Z,100471.48
2023-04-27T17:59:47.832Z,100470.81
2023-04-27T18:02:15.100Z,100471.81
2023-04-27T18:04:42.759Z,100478.57
2023-04-27T18:07:09.898Z,100480.14
2023-04-27T18:09:37.033Z,100484.12
2023-04-27T18:12:10.754Z,100482.87
2023-04-27T18:14:38.630Z,100490.46
2023-04-27T18:17:06.369Z,100492.43
2023-04-27T18:19:33.477Z,100493.99
2023-04-27T18:22:00.615Z,100496.75
2023-04-27T18:24:27.672Z,100500.42
2023-04-27T18:26:54.912Z,100500.69
2023-04-27T18:29:22.158Z,100498.25
2023-04-27T18:31:49.423Z,100501.73
2023-04-27T18:34:16.667Z,100506.91
2023-04-27T18:36:43.714Z,100507.56
2023-04-27T18:39:10.969Z,100509.99
2023-04-27T18:41:38.054Z,100514.82
2023-04-27T18:44:06.202Z,100512.61
2023-04-27T18:46:33.693Z,100515.34
2023-04-27T18:49:01.754Z,100517.39
2023-04-27T18:51:29.371Z,100517.71
2023-04-27T18:53:56.540Z,100520.67
2023-04-27T18:56:23.943Z,100517.66
2023-04-27T18:58:51.255Z,100516.20
2023-04-27T19:01:23.723Z,100521.79
2023-04-27T19:03:51.536Z,100521.45
2023-04-27T19:06:20.959Z,100527.66
2023-04-27T19:08:48.637Z,100533.40
2023-04-27T19:11:15.790Z,100532.79
2023-04-27T19:13:44.301Z,100530.54
2023-04-27T19:16:12.204Z,100532.52
2023-04-27T19:18:40.757Z,100534.71
2023-04-27T19:21:10.077Z,100540.33
2023-04-27T19:23:37.666Z,100537.30
2023-04-27T19:28:34.923Z,100534.80
2023-04-27T19:31:02.353Z,100535.06
2023-04-27T19:33:29.660Z,100539.35
2023-04-27T19:35:58.781Z,100534.77
2023-04-27T19:38:26.262Z,100533.79
2023-04-27T19:40:53.494Z,100534.75
2023-04-27T19:43:21.009Z,100536.53
2023-04-27T19:45:51.666Z,100534.42
2023-04-27T19:48:18.880Z,100535.09
2023-04-27T19:50:46.093Z,100536.50
2023-04-27T19:53:13.419Z,100538.98
2023-04-27T19:55:40.849Z,100542.45
2023-04-27T19:58:08.127Z,100541.48
2023-04-27T20:00:35.460Z,100545.29
2023-04-27T20:03:02.780Z,100544.98
2023-04-27T20:05:30.428Z,100547.15
2023-04-27T20:07:57.753Z,100547.45
2023-04-27T20:10:24.780Z,100553.64
2023-04-27T20:12:56.557Z,100551.84
2023-04-27T20:15:25.473Z,100554.77
2023-04-27T20:17:53.823Z,100554.33
2023-04-27T20:20:21.130Z,100557.96
2023-04-27T20:22:48.291Z,100558.66
2023-04-27T20:25:15.950Z,100560.36
2023-04-27T20:27:42.999Z,100557.98
2023-04-27T20:30:10.558Z,100561.71
2023-04-27T20:32:40.353Z,100564.76
2023-04-27T20:35:11.567Z,100564.88
2023-04-27T20:37:40.180Z,100566.79
2023-04-27T20:40:08.190Z,100566.16
2023-04-27T20:42:36.121Z,100564.21
2023-04-27T20:45:05.536Z,100563.87
2023-04-27T20:47:32.787Z,100567.86
2023-04-27T20:49:59.998Z,100570.77
2023-04-27T20:52:30.580Z,100575.47
2023-04-27T20:54:58.950Z,100577.45
2023-04-27T20:57:26.166Z,100579.86
2023-04-27T20:59:53.182Z,100579.71
2023-04-27T21:02:20.452Z,100579.77
2023-04-27T21:04:47.786Z,100581.28
2023-04-27T21:07:15.028Z,100579.17
2023-04-27T21:09:42.224Z,100584.10
2023-04-27T21:12:09.715Z,100580.30
2023-04-27T21:14:37.615Z,100582.98
2023-04-27T21:17:04.792Z,100580.55
2023-04-27T21:19:32.037Z,100576.89
2023-04-27T21:21:59.178Z,100582.02
2023-04-27T21:24:26.251Z,100582.82
2023-04-27T21:26:53.435Z,100584.71
2023-04-27T21:29:20.556Z,100585.35
2023-04-27T21:31:47.630Z,100590.69
2023-04-27T21:34:15.094Z,100588.98
2023-04-27T21:36:42.466Z,100590.30
2023-04-27T21:39:09.539Z,100594.75
2023-04-27T21:41:37.241Z,100594.75
2023-04-27T21:44:04.486Z,100594.83
2023-04-27T21:46:31.746Z,100601.98
2023-04-27T21:48:58.908Z,100601.85
2023-04-27T21:51:26.426Z,100606.47
2023-04-27T21:53:53.645Z,100605.70
2023-04-27T21:56:21.301Z,100609.73
2023-04-27T21:58:48.484Z,100610.50
2023-04-27T22:01:15.674Z,100609.48
2023-04-27T22:03:43.247Z,100610.70
2023-04-27T22:06:10.803Z,100610.56
2023-04-27T22:08:38.007Z,100608.27
2023-04-27T22:11:05.207Z,100607.05
2023-04-27T22:13:32.332Z,100608.46
2023-04-27T22:15:59.475Z,100605.91
2023-04-27T22:18:26.649Z,100606.80
2023-04-27T22:20:58.358Z,100603.34
2023-04-27T22:23:25.473Z,100604.63
2023-04-27T22:25:52.612Z,100607.26
2023-04-27T22:28:19.768Z,100606.80
2023-04-27T22:30:47.098Z,100611.27
2023-04-27T22:33:14.456Z,100610.69
2023-04-27T22:35:41.584Z,100613.30
2023-04-27T22:38:09.489Z,100611.78
2023-04-27T22:40:36.954Z,100613.08
2023-04-27T22:43:04.098Z,100614.06
2023-04-27T22:45:32.010Z,100615.14
2023-04-27T22:47:59.314Z,100619.30
2023-04-27T22:50:26.994Z,100615.85
2023-04-27T22:52:54.092Z,100616.90
2023-04-27T22:55:21.375Z,100618.08
2023-04-27T22:57:50.082Z,100617.48
2023-04-27T23:00:17.499Z,100618.84
2023-04-27T23:02:44.879Z,100620.58
2023-04-27T23:05:12.634Z,100617.87
2023-04-27T23:07:43.613Z,100616.44
2023-04-27T23:10:11.251Z,100615.79
2023-04-27T23:12:38.969Z,100614.19
2023-04-27T23:15:07.498Z,100614.80
2023-04-27T23:17:36.068Z,100613.47
2023-04-27T23:20:24.118Z,100615.76
2023-04-27T23:22:54.930Z,100610.95
2023-04-27T23:25:22.326Z,100613.30
2023-04-27T23:27:51.326Z,100613.37
2023-04-27T23:30:20.589Z,100618.93
2023-04-27T23:32:47.754Z,100617.27
2023-04-27T23:35:14.944Z,100618.70
2023-04-27T23:37:42.055Z,100613.93
2023-04-27T23:40:09.427Z,100617.59
2023-04-27T23:42:36.909Z,100617.75
2023-04-27T23:45:05.117Z,100614.83
2023-04-27T23:47:34.194Z,100616.05
2023-04-27T23:50:02.456Z,100616.73
2023-04-27T23:52:29.735Z,100615.85
2023-04-27T23:54:58.492Z,100613.93
2023-04-27T23:57:25.778Z,100612.15
2023-04-27T23:59:53.162Z,100612.32
